LTAULTAZ

Guest
Details From LTAU - ERKILET
To LTAZ - KAPADOKYA
Flight Number -
Tags generated
Created
Modified
Stats Distance 45 nm / 84 km
Max Altitude 0 ft / 0 m
Waypoints 3
Social Downloads 1
Likes 0
Share VATSIM

Download

Looking for another format? Having issues loading an existing format? Contact us
Advertisement - Login to hide

Notes

Basic altitude profile: - Ascent Rate: 2500ft/min - Ascent Speed: 250kts - Cruise Altitude: 35000ft - Cruise Speed: 420kts - Descent Rate: 1500ft/min - Descent Speed: 250kts

Route

LTAU TZK LTAZ

ID Type Via Altitude Latitude Longitude Leg Dist Tot Dist Heading (true) Name
O LTAU APT - 0 ft / 0 m 38.77038˚ 35.49543˚ - 0 nm - ERKILET
TZK NDB - 0 ft / 0 m 38.76750˚ 34.54083˚ 44 nm 44 nm 270° / 269° TUZKOY NDB
O LTAZ APT - 0 ft / 0 m 38.77186˚ 34.53455˚ 0 nm 45 nm 312° / 312° KAPADOKYA

Altitude Profile

Advertisement - Login to hide

LTAU

Details ICAO LTAU (ASR)
Name ERKILET
Region Turkey
Timezone Europe/Istanbul (UTC+3.0)
Stats Elevation 3,463 ft / 1,056 m (AMSL)
Location 38.770384° 35.495427°
Runways 1
Magnetic Variation 5.653° E

METAR

LTAU 120250Z 09002KT CAVOK M02/M03 Q1027 NOSIG

Decode

TAF

Not found

Departure Runways

ID Width Length Bearing (true) Bearing (mag) Surface Threshold Offset Overrun Length
07 145 ft / 44 m 9,822 ft / 2,994 m 76.29° 70.64° Concrete 0 ft / 0 m 500 ft / 152 m
25 145 ft / 44 m 9,822 ft / 2,994 m 256.31° 250.66° Concrete 0 ft / 0 m 500 ft / 152 m

LTAZ

Details ICAO LTAZ (NAV)
Name KAPADOKYA
Region Turkey
Timezone Europe/Istanbul (UTC+3.0)
Stats Elevation 3,100 ft / 945 m (AMSL)
Location 38.771865° 34.534548°
Runways 1
Magnetic Variation 5.598° E

METAR

LTAZ 120250Z 16004KT 110V200 CAVOK M00/M01 Q1027

Decode

TAF

Not found

Destination Runways

ID Width Length Bearing (true) Bearing (mag) Surface Threshold Offset Overrun Length
11 148 ft / 45 m 9,789 ft / 2,984 m 117.31° 111.71° Concrete 0 ft / 0 m 197 ft / 60 m
29 148 ft / 45 m 9,789 ft / 2,984 m 297.33° 291.73° Concrete 0 ft / 0 m 197 ft / 60 m

Approach Navaids

Runway Type Ident Frequency Range Bearing (true) Bearing (mag) Slope Elevation
11 Localiser ITZK 110.70 MHz 18 nm / 33 km 117.47° 111.87° - 3,100 ft / 945 m (AMSL)
11 Glidescope ITZK 110.70 MHz 10 nm / 19 km 117.32° 111.73° 3.00° 3,100 ft / 945 m (AMSL)

Popular Alternatives